Time;durP1;ratioP1;P1;durP2;ratioP2;P2;SDS_P1;SDS_P2;PMS_P1;PMS_P2;Temp;Humidity;BMP_temperature;BMP_pressure;BME280_temperature;BME280_humidity;BME280_pressure;Samples;Min_cycle;Max_cycle;Signal;HPM_P1;HPM_P2
2022/06/08 00:00:37;;;;;;;0.20;0.10;;;19.50;75.30;;;;;;5056465;28;20048;-76
2022/06/08 00:03:14;;;;;;;0.82;0.10;;;19.70;75.90;;;;;;5058483;28;20025;-84
2022/06/08 00:05:41;;;;;;;0.77;0.13;;;20.10;74.20;;;;;;5047486;28;20044;-76
2022/06/08 00:08:09;;;;;;;0.50;0.20;;;20.10;73.10;;;;;;5051016;28;20482;-90
2022/06/08 00:10:38;;;;;;;0.10;0.00;;;20.00;72.70;;;;;;5043516;28;20047;-81
2022/06/08 00:13:06;;;;;;;0.08;0.00;;;19.90;73.70;;;;;;5049948;28;20033;-81
2022/06/08 00:15:34;;;;;;;0.15;0.05;;;20.00;73.80;;;;;;5043576;28;20551;-74
2022/06/08 00:18:02;;;;;;;0.00;0.00;;;20.40;71.70;;;;;;5034406;28;20500;-75
2022/06/08 00:20:29;;;;;;;0.03;0.00;;;20.80;71.60;;;;;;5033649;28;20048;-86
2022/06/08 00:22:56;;;;;;;0.43;0.05;;;21.10;72.80;;;;;;5033690;28;20816;-76
2022/06/08 00:25:24;;;;;;;0.00;0.00;;;21.00;70.90;;;;;;5034888;28;20086;-79
2022/06/08 00:27:51;;;;;;;1.25;0.10;;;21.10;69.60;;;;;;5039325;28;20521;-77
2022/06/08 00:30:19;;;;;;;0.00;0.00;;;21.40;70.10;;;;;;5030946;28;20108;-81
2022/06/08 00:32:46;;;;;;;0.55;0.30;;;21.60;71.50;;;;;;5036957;28;20047;-87
2022/06/08 00:35:14;;;;;;;0.50;0.20;;;22.00;69.20;;;;;;5033189;28;20026;-81
2022/06/08 00:37:41;;;;;;;0.15;0.10;;;22.10;68.30;;;;;;5035735;28;20036;-77
2022/06/08 00:40:12;;;;;;;0.52;0.00;;;21.90;69.50;;;;;;5035776;28;20036;-78
2022/06/08 00:42:41;;;;;;;0.35;0.10;;;22.00;69.40;;;;;;5037838;28;20022;-77
2022/06/08 00:45:16;;;;;;;0.60;0.00;;;22.50;68.40;;;;;;5033473;28;20048;-85
2022/06/08 00:47:52;;;;;;;0.08;0.08;;;22.40;67.90;;;;;;5033703;28;20108;-76
2022/06/08 00:50:53;;;;;;;0.55;0.10;;;22.70;67.50;;;;;;5030598;28;20049;-81
2022/06/08 00:53:34;;;;;;;0.03;0.00;;;22.80;68.10;;;;;;5015062;28;20045;-79
2022/06/08 00:56:05;;;;;;;0.10;0.10;;;23.10;66.20;;;;;;5033020;28;20017;-76
2022/06/08 00:58:37;;;;;;;0.05;0.05;;;22.80;65.50;;;;;;5034556;28;20076;-83
2022/06/08 01:01:05;;;;;;;0.10;0.10;;;22.90;66.40;;;;;;5037621;28;20039;-82
2022/06/08 01:03:32;;;;;;;0.52;0.00;;;23.00;65.50;;;;;;5036453;28;20041;-78
2022/06/08 01:06:14;;;;;;;0.00;0.00;;;23.50;65.80;;;;;;5043862;28;20511;-90
2022/06/08 01:08:54;;;;;;;1.08;0.17;;;23.70;65.10;;;;;;5047724;28;20074;-80
2022/06/08 01:11:37;;;;;;;4.25;1.00;;;23.80;65.80;;;;;;5053523;28;20546;-90
2022/06/08 01:14:08;;;;;;;0.45;0.10;;;24.10;64.30;;;;;;5048849;28;20077;-81
2022/06/08 01:16:36;;;;;;;0.00;0.00;;;24.10;65.70;;;;;;5041102;28;20053;-83
2022/06/08 01:19:05;;;;;;;0.13;0.00;;;24.40;64.50;;;;;;5038145;28;20110;-87
2022/06/08 01:21:32;;;;;;;0.10;0.00;;;24.40;65.00;;;;;;5043134;28;20025;-89
2022/06/08 01:24:03;;;;;;;0.00;0.00;;;24.80;64.10;;;;;;5036088;28;20029;-81
2022/06/08 01:27:10;;;;;;;0.30;0.03;;;24.90;62.10;;;;;;5039164;28;20026;-83
2022/06/08 01:29:46;;;;;;;0.98;0.00;;;24.80;62.50;;;;;;5033765;28;20021;-87
2022/06/08 01:32:23;;;;;;;0.75;0.30;;;24.70;62.70;;;;;;5040481;28;20033;-76
2022/06/08 01:35:19;;;;;;;1.30;0.45;;;24.60;62.50;;;;;;5044761;28;20025;-77
2022/06/08 01:38:08;;;;;;;0.70;0.32;;;24.50;61.60;;;;;;5036479;28;20048;-85
2022/06/08 01:40:48;;;;;;;0.43;0.20;;;24.40;61.60;;;;;;5036958;28;20040;-81
2022/06/08 01:43:31;;;;;;;0.63;0.10;;;24.30;60.70;;;;;;5036230;28;20057;-84
2022/06/08 01:46:10;;;;;;;1.00;0.73;;;24.00;61.30;;;;;;5037399;28;20467;-78
2022/06/08 01:48:43;;;;;;;0.65;0.30;;;24.50;64.70;;;;;;5031936;28;20072;-79
2022/06/08 01:51:24;;;;;;;0.75;0.10;;;24.90;62.00;;;;;;5032728;28;20032;-82
2022/06/08 01:54:04;;;;;;;0.10;0.00;;;24.70;63.10;;;;;;5043025;28;20515;-82
2022/06/08 01:56:54;;;;;;;0.32;0.10;;;24.80;62.10;;;;;;5051015;28;20017;-83
2022/06/08 01:59:37;;;;;;;0.25;0.25;;;25.00;61.50;;;;;;5036101;28;20068;-79
2022/06/08 02:02:08;;;;;;;0.68;0.20;;;24.80;62.00;;;;;;5038574;28;20036;-80
2022/06/08 02:04:40;;;;;;;0.05;0.05;;;25.10;61.60;;;;;;5052421;28;20037;-83
2022/06/08 02:07:37;;;;;;;0.17;0.10;;;25.40;61.40;;;;;;5035433;28;20033;-84
2022/06/08 02:10:13;;;;;;;0.40;0.10;;;24.90;60.10;;;;;;5044893;28;20509;-80
2022/06/08 02:12:46;;;;;;;0.20;0.10;;;25.20;61.30;;;;;;5052079;28;20041;-76
2022/06/08 02:15:20;;;;;;;0.65;0.10;;;25.50;61.70;;;;;;5037160;28;20661;-82
2022/06/08 02:18:00;;;;;;;0.03;0.00;;;25.50;60.90;;;;;;5034434;28;20017;-80
2022/06/08 02:20:37;;;;;;;0.10;0.00;;;25.40;60.60;;;;;;5044149;28;20114;-80
2022/06/08 02:23:16;;;;;;;0.13;0.10;;;25.40;61.20;;;;;;5031903;28;20468;-82
2022/06/08 02:26:02;;;;;;;0.38;0.00;;;25.50;59.70;;;;;;5038743;28;20041;-82
2022/06/08 02:28:40;;;;;;;;;;;25.40;60.10;;;;;;5033397;28;20036;-78
2022/06/08 02:31:36;;;;;;;0.00;0.00;;;25.50;61.40;;;;;;5034878;28;19987;-78
2022/06/08 02:34:31;;;;;;;0.20;0.10;;;25.70;61.80;;;;;;5030222;28;20064;-79
2022/06/08 02:36:58;;;;;;;0.00;0.00;;;25.50;61.10;;;;;;5041563;28;20286;-78
2022/06/08 02:39:46;;;;;;;0.43;0.10;;;25.00;61.20;;;;;;5033434;28;20029;-76
2022/06/08 02:42:19;;;;;;;0.47;0.10;;;25.00;61.90;;;;;;5034508;28;20029;-75
2022/06/08 02:44:51;;;;;;;0.20;0.00;;;24.90;61.10;;;;;;5033379;28;20026;-78
2022/06/08 02:47:29;;;;;;;0.25;0.08;;;24.50;60.70;;;;;;5032219;28;20097;-77
2022/06/08 02:50:26;;;;;;;0.20;0.10;;;24.50;62.50;;;;;;5035818;28;20115;-77
2022/06/08 02:53:31;;;;;;;0.10;0.00;;;24.00;61.60;;;;;;5037448;28;20382;-76
2022/06/08 02:56:33;;;;;;;0.15;0.00;;;24.10;62.90;;;;;;5038370;28;20364;-77
2022/06/08 02:59:08;;;;;;;0.60;0.20;;;24.00;63.60;;;;;;5036784;28;20074;-76
2022/06/08 03:01:38;;;;;;;0.10;0.10;;;23.50;62.30;;;;;;5032447;28;20540;-79
2022/06/08 03:04:12;;;;;;;0.28;0.10;;;23.30;62.60;;;;;;5038519;28;20890;-77
2022/06/08 03:06:52;;;;;;;0.10;0.00;;;23.10;62.70;;;;;;5051939;28;20029;-78
2022/06/08 03:09:21;;;;;;;1.30;0.10;;;22.70;63.30;;;;;;5047161;28;20033;-77
2022/06/08 03:11:59;;;;;;;0.95;0.40;;;22.40;63.10;;;;;;5040425;28;20066;-78
2022/06/08 03:14:30;;;;;;;0.28;0.00;;;22.00;63.70;;;;;;5049532;28;20033;-77
2022/06/08 03:17:04;;;;;;;0.22;0.10;;;21.80;65.00;;;;;;5051030;28;20043;-78
2022/06/08 03:19:33;;;;;;;0.38;0.22;;;21.60;65.40;;;;;;5044673;28;20041;-82
2022/06/08 03:22:01;;;;;;;0.10;0.00;;;21.50;63.50;;;;;;5052401;28;20028;-81
2022/06/08 03:24:28;;;;;;;0.50;0.10;;;21.20;64.00;;;;;;5039657;28;20103;-86
2022/06/08 03:26:59;;;;;;;0.05;0.05;;;20.80;63.70;;;;;;5035061;28;20025;-77
2022/06/08 03:29:27;;;;;;;0.00;0.00;;;20.30;63.40;;;;;;5046579;28;20021;-81
2022/06/08 03:31:55;;;;;;;1.08;0.30;;;19.70;65.00;;;;;;5035209;28;20040;-87
2022/06/08 03:34:22;;;;;;;1.35;0.32;;;19.20;65.40;;;;;;5043389;28;20090;-86
2022/06/08 03:36:49;;;;;;;0.40;0.00;;;18.70;66.30;;;;;;5032231;28;20036;-77
2022/06/08 03:39:18;;;;;;;0.10;0.10;;;18.30;66.90;;;;;;5033813;28;20044;-82
2022/06/08 03:41:45;;;;;;;1.10;0.00;;;17.90;67.30;;;;;;5029897;28;20117;-78
2022/06/08 03:44:13;;;;;;;0.20;0.00;;;17.70;67.10;;;;;;5033327;28;20030;-77
2022/06/08 03:46:52;;;;;;;0.47;0.05;;;17.30;66.80;;;;;;5038843;28;20374;-75
2022/06/08 03:49:22;;;;;;;2.42;0.10;;;17.20;67.30;;;;;;5066993;28;20056;-77
2022/06/08 03:51:52;;;;;;;1.10;0.30;;;17.00;67.90;;;;;;5047416;28;20108;-82
2022/06/08 03:54:25;;;;;;;0.38;0.05;;;16.90;68.20;;;;;;5031979;28;20111;-78
2022/06/08 03:56:57;;;;;;;0.03;0.00;;;16.80;68.50;;;;;;5032128;28;20508;-78
2022/06/08 03:59:25;;;;;;;1.33;0.20;;;16.70;67.90;;;;;;5035539;28;20044;-79
2022/06/08 04:01:53;;;;;;;0.75;0.05;;;16.50;67.90;;;;;;5030928;28;20029;-78
2022/06/08 04:04:21;;;;;;;0.35;0.30;;;16.40;67.80;;;;;;5034929;28;20099;-79
2022/06/08 04:06:49;;;;;;;0.00;0.00;;;16.30;70.00;;;;;;5030450;28;20033;-82
2022/06/08 04:09:17;;;;;;;0.08;0.05;;;16.30;68.90;;;;;;5038123;28;20037;-82
2022/06/08 04:11:46;;;;;;;0.32;0.05;;;16.30;67.90;;;;;;5033113;28;21787;-79
2022/06/08 04:14:13;;;;;;;0.38;0.10;;;16.30;69.20;;;;;;5030074;28;20514;-79
2022/06/08 04:16:40;;;;;;;3.47;0.10;;;16.20;68.90;;;;;;5046266;28;20040;-77
2022/06/08 04:19:08;;;;;;;0.35;0.30;;;16.20;68.70;;;;;;5036395;28;20037;-79
2022/06/08 04:21:36;;;;;;;1.90;0.10;;;16.10;69.00;;;;;;5031976;28;20044;-82
2022/06/08 04:24:03;;;;;;;3.38;0.63;;;16.00;69.50;;;;;;5033269;28;20077;-80
2022/06/08 04:26:31;;;;;;;0.28;0.10;;;15.90;69.20;;;;;;5031937;28;20029;-80
2022/06/08 04:28:58;;;;;;;0.28;0.10;;;15.80;69.70;;;;;;5035626;28;20075;-87
2022/06/08 04:31:26;;;;;;;0.57;0.17;;;15.70;70.10;;;;;;5032815;28;20026;-79
2022/06/08 04:33:54;;;;;;;1.48;0.30;;;15.70;70.90;;;;;;5030492;28;20059;-81
2022/06/08 04:36:22;;;;;;;0.28;0.17;;;15.70;71.40;;;;;;5045470;28;20060;-79
2022/06/08 04:38:49;;;;;;;1.17;0.20;;;15.70;71.70;;;;;;5033923;28;20022;-78
2022/06/08 04:41:18;;;;;;;0.30;0.30;;;15.60;71.40;;;;;;5033193;28;20372;-78
2022/06/08 04:43:45;;;;;;;1.02;0.10;;;15.50;71.70;;;;;;5035654;28;20023;-78
2022/06/08 04:46:15;;;;;;;0.80;0.20;;;15.50;71.90;;;;;;5046106;28;21256;-82
2022/06/08 04:48:47;;;;;;;0.08;0.08;;;15.50;72.20;;;;;;5036866;28;20049;-81
2022/06/08 04:51:15;;;;;;;0.73;0.10;;;15.50;71.60;;;;;;5048089;28;20056;-85
2022/06/08 04:53:45;;;;;;;0.20;0.03;;;15.50;72.10;;;;;;5058459;28;20025;-82
2022/06/08 04:56:12;;;;;;;0.00;0.00;;;15.40;72.10;;;;;;5053038;28;20553;-81
2022/06/08 04:58:40;;;;;;;0.25;0.05;;;15.40;72.40;;;;;;5054292;28;20065;-82
2022/06/08 05:01:08;;;;;;;0.63;0.10;;;15.40;72.00;;;;;;5045438;28;20047;-78
2022/06/08 05:03:36;;;;;;;0.45;0.15;;;15.40;72.10;;;;;;5048131;28;20104;-80
2022/06/08 05:06:03;;;;;;;1.35;0.03;;;15.30;73.20;;;;;;5038390;28;20029;-78
2022/06/08 05:08:34;;;;;;;0.85;0.10;;;15.20;72.50;;;;;;5035691;28;20029;-77
2022/06/08 05:11:04;;;;;;;1.70;0.50;;;15.20;72.90;;;;;;5034834;28;20033;-79
2022/06/08 05:13:33;;;;;;;0.10;0.10;;;15.20;73.40;;;;;;5043552;28;20148;-79
2022/06/08 05:16:01;;;;;;;0.00;0.00;;;15.10;73.40;;;;;;5039639;28;20033;-81
2022/06/08 05:18:28;;;;;;;2.45;0.38;;;15.10;73.00;;;;;;5036699;28;20076;-79
2022/06/08 05:20:57;;;;;;;0.20;0.10;;;15.00;73.70;;;;;;5031830;28;23135;-84
2022/06/08 05:23:28;;;;;;;0.13;0.10;;;15.00;73.80;;;;;;5034880;28;20024;-80
2022/06/08 05:25:56;;;;;;;0.00;0.00;;;14.90;73.80;;;;;;5034871;28;20025;-81
2022/06/08 05:28:24;;;;;;;0.08;0.05;;;15.00;73.70;;;;;;5034312;28;20738;-80
2022/06/08 05:30:53;;;;;;;0.03;0.00;;;15.00;74.20;;;;;;5029350;28;20091;-78
2022/06/08 05:33:21;;;;;;;0.10;0.10;;;15.00;74.60;;;;;;5036785;28;20086;-78
2022/06/08 05:35:48;;;;;;;0.00;0.00;;;14.90;73.80;;;;;;5041498;28;20030;-79
2022/06/08 05:38:16;;;;;;;0.43;0.10;;;15.00;74.50;;;;;;5040278;28;20050;-79
2022/06/08 05:40:43;;;;;;;4.18;0.20;;;14.90;74.10;;;;;;5034989;28;20488;-78
2022/06/08 05:43:13;;;;;;;0.10;0.10;;;14.80;74.80;;;;;;5039189;28;20103;-79
2022/06/08 05:45:42;;;;;;;0.90;0.40;;;14.90;75.00;;;;;;5055285;28;20036;-80
2022/06/08 05:48:10;;;;;;;0.10;0.10;;;14.80;74.90;;;;;;5053379;28;20379;-79
2022/06/08 05:50:39;;;;;;;0.20;0.17;;;14.80;74.70;;;;;;5052728;28;20031;-79
2022/06/08 05:53:06;;;;;;;0.95;0.20;;;14.80;75.60;;;;;;5049459;28;20518;-78
2022/06/08 05:55:34;;;;;;;3.00;0.43;;;14.70;75.50;;;;;;5053916;28;20029;-78
2022/06/08 05:58:01;;;;;;;1.48;0.10;;;14.60;75.60;;;;;;5048973;28;20048;-78
2022/06/08 06:00:33;;;;;;;0.80;0.10;;;14.60;75.40;;;;;;5034857;28;20037;-79
2022/06/08 06:03:01;;;;;;;1.63;0.45;;;14.60;75.50;;;;;;5044861;28;20411;-78
2022/06/08 06:05:32;;;;;;;0.20;0.10;;;14.50;75.10;;;;;;5034839;28;20428;-78
2022/06/08 06:08:00;;;;;;;0.17;0.10;;;14.50;75.40;;;;;;5045457;28;20391;-78
2022/06/08 06:10:29;;;;;;;1.30;0.50;;;14.60;75.80;;;;;;5050293;28;20028;-77
2022/06/08 06:12:57;;;;;;;0.00;0.00;;;14.60;76.80;;;;;;5049776;28;20128;-79
2022/06/08 06:15:26;;;;;;;0.10;0.10;;;14.60;78.50;;;;;;5050703;28;20035;-76
2022/06/08 06:17:53;;;;;;;1.08;0.10;;;14.60;77.80;;;;;;5048347;28;20757;-79
2022/06/08 06:20:21;;;;;;;0.10;0.10;;;14.70;77.00;;;;;;5035869;28;20037;-77
2022/06/08 06:22:48;;;;;;;0.32;0.22;;;14.50;76.70;;;;;;5031618;28;20041;-76
2022/06/08 06:25:15;;;;;;;0.40;0.40;;;14.50;77.80;;;;;;5034895;28;20403;-77
2022/06/08 06:27:43;;;;;;;0.35;0.20;;;14.30;77.90;;;;;;5034944;28;20064;-80
2022/06/08 06:30:11;;;;;;;0.88;0.20;;;14.20;79.40;;;;;;5032809;28;20037;-76
2022/06/08 06:32:42;;;;;;;0.63;0.10;;;14.00;78.80;;;;;;5035939;28;20426;-78
2022/06/08 06:35:18;;;;;;;0.70;0.20;;;13.80;79.10;;;;;;5030201;28;20444;-79
2022/06/08 06:37:46;;;;;;;0.10;0.10;;;13.60;79.00;;;;;;5034792;28;20039;-80
2022/06/08 06:40:14;;;;;;;0.28;0.20;;;13.40;79.30;;;;;;5034534;28;20048;-84
2022/06/08 06:42:42;;;;;;;0.17;0.10;;;13.20;80.30;;;;;;5037722;28;20029;-76
2022/06/08 06:45:10;;;;;;;0.22;0.15;;;13.00;79.90;;;;;;5038866;28;20476;-84
2022/06/08 06:47:37;;;;;;;1.58;0.30;;;12.90;80.50;;;;;;5037554;28;20033;-78
2022/06/08 06:50:07;;;;;;;1.45;0.28;;;12.80;80.80;;;;;;5035212;28;20045;-83
2022/06/08 06:52:34;;;;;;;1.40;0.60;;;12.70;82.10;;;;;;5040915;28;20112;-84
2022/06/08 06:55:02;;;;;;;0.35;0.28;;;12.60;81.30;;;;;;5043587;28;20029;-82
2022/06/08 06:57:29;;;;;;;0.63;0.50;;;12.50;81.70;;;;;;5044096;28;20371;-83
2022/06/08 06:59:56;;;;;;;0.45;0.20;;;12.40;81.60;;;;;;5043149;28;20179;-79
2022/06/08 07:02:24;;;;;;;1.17;0.40;;;12.30;81.60;;;;;;5042825;28;20754;-76
2022/06/08 07:04:51;;;;;;;1.95;0.82;;;12.20;82.30;;;;;;5033384;28;20049;-84
2022/06/08 07:07:19;;;;;;;0.77;0.40;;;12.10;82.40;;;;;;5033370;28;20036;-80
2022/06/08 07:09:46;;;;;;;1.40;0.30;;;12.10;82.50;;;;;;5036109;28;20067;-76
2022/06/08 07:12:14;;;;;;;1.25;0.20;;;11.90;82.50;;;;;;5034890;28;20029;-83
2022/06/08 07:14:42;;;;;;;0.50;0.30;;;11.90;83.20;;;;;;5037482;28;20108;-76
2022/06/08 07:17:09;;;;;;;0.30;0.30;;;11.80;83.00;;;;;;5037540;28;20036;-77
2022/06/08 07:19:37;;;;;;;0.60;0.20;;;11.70;83.60;;;;;;5034115;28;20040;-78
2022/06/08 07:22:05;;;;;;;0.50;0.20;;;11.70;84.30;;;;;;5035651;28;20034;-81
2022/06/08 07:24:33;;;;;;;0.70;0.30;;;11.60;83.70;;;;;;5041221;28;20025;-79
2022/06/08 07:27:03;;;;;;;1.88;0.32;;;11.50;83.80;;;;;;5046536;28;20017;-76
2022/06/08 07:29:31;;;;;;;1.10;0.43;;;11.50;84.40;;;;;;5034241;28;20056;-74
2022/06/08 07:31:59;;;;;;;1.23;0.57;;;11.40;84.40;;;;;;5036724;28;20752;-77
2022/06/08 07:34:27;;;;;;;0.73;0.28;;;11.30;84.60;;;;;;5039147;28;20029;-77
2022/06/08 07:36:55;;;;;;;0.30;0.28;;;11.20;84.50;;;;;;5033990;28;20037;-78
2022/06/08 07:39:23;;;;;;;0.50;0.40;;;11.20;84.50;;;;;;5030508;28;20029;-76
2022/06/08 07:41:50;;;;;;;0.98;0.30;;;11.20;85.00;;;;;;5042869;28;20045;-78
2022/06/08 07:44:19;;;;;;;0.95;0.40;;;11.10;84.70;;;;;;5039184;28;20345;-80
2022/06/08 07:46:47;;;;;;;1.42;0.75;;;11.10;85.00;;;;;;5032833;28;20043;-80
2022/06/08 07:52:22;;;;;;;0.57;0.25;;;11.00;85.10;;;;;;5039807;28;20039;-73
2022/06/08 07:54:51;;;;;;;2.58;0.60;;;11.00;85.50;;;;;;5029056;28;20112;-78
2022/06/08 07:57:29;;;;;;;2.63;0.70;;;10.90;86.20;;;;;;5041042;28;20033;-76
2022/06/08 07:59:56;;;;;;;2.33;1.02;;;10.90;85.90;;;;;;5025461;28;20117;-76
2022/06/08 08:02:23;;;;;;;0.95;0.45;;;10.80;85.90;;;;;;5042908;28;20029;-77
2022/06/08 08:04:51;;;;;;;1.42;0.70;;;10.70;86.70;;;;;;5029198;28;20262;-75
2022/06/08 08:07:18;;;;;;;0.50;0.40;;;10.70;86.70;;;;;;5034379;28;20037;-77
2022/06/08 08:09:48;;;;;;;0.63;0.45;;;10.60;87.10;;;;;;5031510;28;20045;-76
2022/06/08 08:12:15;;;;;;;0.68;0.40;;;10.60;87.30;;;;;;5033242;28;20033;-77
2022/06/08 08:14:43;;;;;;;1.73;0.55;;;10.50;88.00;;;;;;5029641;28;20021;-76
2022/06/08 08:17:10;;;;;;;0.50;0.40;;;10.50;87.30;;;;;;5036243;28;20051;-77
2022/06/08 08:19:38;;;;;;;4.15;0.55;;;10.50;87.80;;;;;;5044741;28;20045;-76
2022/06/08 08:22:06;;;;;;;0.77;0.50;;;10.40;87.90;;;;;;5039360;28;20028;-77
2022/06/08 08:24:33;;;;;;;0.45;0.32;;;10.30;88.40;;;;;;5034975;28;20104;-79
2022/06/08 08:27:01;;;;;;;0.50;0.30;;;10.30;89.10;;;;;;5035941;28;20152;-76
2022/06/08 08:29:28;;;;;;;1.20;0.63;;;10.20;88.70;;;;;;5040871;28;20029;-75
2022/06/08 08:31:56;;;;;;;1.88;0.60;;;10.20;89.00;;;;;;5043208;28;20132;-76
2022/06/08 08:34:23;;;;;;;0.60;0.40;;;10.10;89.80;;;;;;5044772;28;20021;-76
2022/06/08 08:36:51;;;;;;;1.42;0.47;;;10.00;90.00;;;;;;5033766;28;20115;-76
2022/06/08 08:39:19;;;;;;;1.17;0.52;;;10.00;90.00;;;;;;5040482;28;20044;-75
2022/06/08 08:44:50;;;;;;;0.93;0.70;;;9.80;90.10;;;;;;5040920;28;20040;-75
2022/06/08 08:47:32;;;;;;;3.10;0.93;;;9.80;90.30;;;;;;5044282;28;20137;-74
2022/06/08 08:50:30;;;;;;;2.67;1.10;;;9.70;90.70;;;;;;5041442;28;20064;-74
2022/06/08 08:53:30;;;;;;;0.85;0.70;;;9.60;91.30;;;;;;5030700;28;20083;-76
2022/06/08 08:56:08;;;;;;;3.20;0.82;;;9.50;91.40;;;;;;5030227;28;20667;-75
2022/06/08 08:58:38;;;;;;;1.17;0.65;;;9.40;91.70;;;;;;5037480;28;20151;-76
2022/06/08 09:01:26;;;;;;;2.25;0.80;;;9.30;91.80;;;;;;5030125;28;20439;-74
2022/06/08 09:04:12;;;;;;;1.50;1.40;;;9.20;92.10;;;;;;5064697;28;20448;-74
2022/06/08 09:06:41;;;;;;;1.90;0.88;;;9.20;91.90;;;;;;5030425;28;20452;-73
2022/06/08 09:09:29;;;;;;;2.05;0.70;;;9.10;92.10;;;;;;5041385;28;20037;-77
2022/06/08 09:11:56;;;;;;;1.17;0.70;;;9.10;92.10;;;;;;5044921;28;20736;-76
2022/06/08 09:14:52;;;;;;;1.92;0.75;;;9.10;92.20;;;;;;5050329;28;20041;-77
2022/06/08 09:17:33;;;;;;;1.45;0.80;;;9.10;92.30;;;;;;5033324;28;20037;-74
2022/06/08 09:20:21;;;;;;;1.13;0.77;;;9.10;92.30;;;;;;5047313;28;20147;-75
2022/06/08 09:22:52;;;;;;;2.38;1.00;;;9.10;92.30;;;;;;5052262;28;20039;-75
2022/06/08 09:25:27;;;;;;;1.73;0.50;;;9.10;92.30;;;;;;5050774;28;20549;-76
2022/06/08 09:27:56;;;;;;;0.87;0.50;;;9.10;92.60;;;;;;5046664;28;20028;-74
2022/06/08 09:30:31;;;;;;;0.95;0.57;;;9.00;92.70;;;;;;5049266;28;20362;-77
2022/06/08 09:33:01;;;;;;;1.47;0.47;;;8.90;92.90;;;;;;5037196;28;20567;-74
2022/06/08 09:35:36;;;;;;;2.05;0.30;;;8.80;92.90;;;;;;5038150;28;20139;-76
2022/06/08 09:38:13;;;;;;;1.33;0.73;;;8.80;93.00;;;;;;5053879;28;20083;-77
2022/06/08 09:41:05;;;;;;;1.40;0.73;;;8.70;93.50;;;;;;5040710;28;20132;-77
2022/06/08 09:43:39;;;;;;;2.13;0.80;;;8.70;93.50;;;;;;5050264;28;20125;-74
2022/06/08 09:46:17;;;;;;;2.65;1.70;;;8.70;93.40;;;;;;5053372;28;20108;-76
2022/06/08 09:51:55;;;;;;;4.57;1.30;;;8.60;93.40;;;;;;5036203;28;20500;-77
2022/06/08 09:54:31;;;;;;;1.77;0.70;;;8.60;93.30;;;;;;5033125;28;20029;-76
2022/06/08 09:57:21;;;;;;;3.30;0.65;;;8.50;93.20;;;;;;5036435;28;20044;-77
2022/06/08 10:00:21;;;;;;;1.42;0.80;;;8.60;93.10;;;;;;5035379;28;20053;-77
2022/06/08 10:03:10;;;;;;;2.35;0.90;;;8.60;92.90;;;;;;5044335;28;20492;-77
2022/06/08 10:06:03;;;;;;;2.15;1.02;;;8.60;92.80;;;;;;5043225;28;20040;-75
2022/06/08 10:08:57;;;;;;;1.92;1.00;;;8.50;92.90;;;;;;5034450;28;20100;-75
2022/06/08 10:11:42;;;;;;;3.58;1.00;;;8.50;93.30;;;;;;5048643;28;20025;-77
2022/06/08 10:14:23;;;;;;;4.53;1.27;;;8.40;93.50;;;;;;5046270;28;20048;-78
2022/06/08 10:17:12;;;;;;;2.30;1.10;;;8.40;93.70;;;;;;5032198;28;20096;-75
2022/06/08 10:20:06;;;;;;;4.95;1.42;;;8.30;94.10;;;;;;5043417;28;20028;-74
2022/06/08 10:22:46;;;;;;;2.28;0.88;;;8.20;94.40;;;;;;5044388;28;20040;-77
2022/06/08 10:25:26;;;;;;;2.75;0.82;;;8.20;94.70;;;;;;5032804;28;20051;-74
2022/06/08 10:27:58;;;;;;;3.78;1.30;;;8.10;94.40;;;;;;5037787;28;20033;-77
2022/06/08 10:30:34;;;;;;;5.88;2.17;;;8.10;94.10;;;;;;5051267;28;20032;-75
2022/06/08 10:33:21;;;;;;;7.65;1.98;;;8.10;94.10;;;;;;5039940;28;20120;-77
2022/06/08 10:35:57;;;;;;;2.22;1.60;;;8.10;94.10;;;;;;5032607;28;20445;-74
2022/06/08 10:38:26;;;;;;;;;;;8.10;94.10;;;;;;5033888;28;20400;-74
2022/06/08 10:42:39;;;;;;;4.00;2.65;;;8.10;94.10;;;;;;5047143;28;19939;-74
2022/06/08 10:43:55;;;;;;;2.95;2.00;;;8.10;94.20;;;;;;5036978;28;20030;-76
2022/06/08 10:46:47;;;;;;;3.22;1.40;;;8.10;94.10;;;;;;5047893;28;20074;-75
2022/06/08 10:49:31;;;;;;;5.40;2.90;;;8.20;94.30;;;;;;5040536;28;20068;-77
2022/06/08 10:52:14;;;;;;;3.90;2.10;;;8.10;94.30;;;;;;5032309;28;20056;-75
2022/06/08 10:54:56;;;;;;;4.28;2.70;;;8.10;94.40;;;;;;5035996;28;20421;-75
2022/06/08 10:57:42;;;;;;;4.53;1.88;;;8.00;94.70;;;;;;5040112;28;20025;-78
2022/06/08 11:00:24;;;;;;;3.03;1.98;;;8.00;94.60;;;;;;5037803;28;20041;-76
2022/06/08 11:03:03;;;;;;;4.60;2.35;;;7.80;94.90;;;;;;5031845;28;20065;-77
2022/06/08 11:05:56;;;;;;;6.35;3.53;;;7.70;95.30;;;;;;5032449;28;20049;-78
2022/06/08 11:08:24;;;;;;;10.50;6.07;;;7.50;96.10;;;;;;5033462;28;20421;-75
2022/06/08 11:10:57;;;;;;;10.82;6.13;;;7.30;96.50;;;;;;5050039;28;20033;-76
2022/06/08 11:13:25;;;;;;;8.88;4.65;;;7.20;96.80;;;;;;5051064;28;20103;-78
2022/06/08 11:16:01;;;;;;;4.53;3.85;;;7.00;97.30;;;;;;5036400;28;20105;-77
2022/06/08 11:18:48;;;;;;;6.38;4.40;;;6.90;97.80;;;;;;5043694;28;20030;-78
2022/06/08 11:21:15;;;;;;;6.00;4.18;;;6.70;98.20;;;;;;5033497;28;20100;-75
2022/06/08 11:24:04;;;;;;;11.45;5.57;;;6.60;98.30;;;;;;5049479;28;20029;-76
2022/06/08 11:26:43;;;;;;;8.40;5.10;;;6.60;98.60;;;;;;5046158;28;20025;-76
2022/06/08 11:29:22;;;;;;;8.55;4.95;;;6.50;98.80;;;;;;5034719;28;20487;-78
2022/06/08 11:31:56;;;;;;;7.07;3.95;;;6.40;99.00;;;;;;5039170;28;20029;-74
2022/06/08 11:34:47;;;;;;;9.20;4.60;;;6.40;99.10;;;;;;5038363;28;20045;-77
2022/06/08 11:37:15;;;;;;;9.00;4.05;;;6.40;99.20;;;;;;5040870;28;20029;-75
2022/06/08 11:39:54;;;;;;;6.00;4.13;;;6.30;99.30;;;;;;5049545;28;20037;-77
2022/06/08 11:42:32;;;;;;;5.97;3.60;;;6.30;99.60;;;;;;5037206;28;20083;-76
2022/06/08 11:45:06;;;;;;;6.78;4.03;;;6.30;99.60;;;;;;5037545;28;20025;-74
2022/06/08 11:47:48;;;;;;;7.65;3.05;;;6.30;99.60;;;;;;5035418;28;20037;-78
2022/06/08 11:50:41;;;;;;;7.55;3.97;;;6.20;99.80;;;;;;5033949;28;20176;-74
2022/06/08 11:53:24;;;;;;;10.90;3.35;;;6.30;99.90;;;;;;5031122;28;20030;-75
2022/06/08 11:55:58;;;;;;;3.03;2.70;;;6.20;99.90;;;;;;5032324;28;20025;-77
2022/06/08 11:58:29;;;;;;;8.73;3.40;;;6.30;99.80;;;;;;5034106;28;20113;-75
2022/06/08 12:01:15;;;;;;;4.18;2.63;;;6.30;99.80;;;;;;5045422;28;20080;-74
2022/06/08 12:03:49;;;;;;;11.07;2.40;;;6.40;99.70;;;;;;5035094;28;20048;-77
2022/06/08 12:06:23;;;;;;;4.68;1.70;;;6.50;99.40;;;;;;5031510;28;20033;-77
2022/06/08 12:09:00;;;;;;;2.92;1.10;;;6.50;99.10;;;;;;5042192;28;20052;-76
2022/06/08 12:11:30;;;;;;;3.63;1.42;;;6.70;99.00;;;;;;5038695;28;20436;-76
2022/06/08 12:14:14;;;;;;;1.98;1.48;;;6.70;98.70;;;;;;5031038;28;20515;-73
2022/06/08 12:16:53;;;;;;;4.43;2.00;;;6.80;98.60;;;;;;5043979;28;20501;-75
2022/06/08 12:19:22;;;;;;;4.28;3.17;;;6.80;98.60;;;;;;5034952;28;20063;-75
2022/06/08 12:22:07;;;;;;;11.18;6.10;;;6.90;98.40;;;;;;5038124;28;20597;-77
2022/06/08 12:24:34;;;;;;;8.70;5.80;;;6.90;98.80;;;;;;5031350;28;20033;-77
2022/06/08 12:27:24;;;;;;;14.23;7.22;;;6.80;99.10;;;;;;5039952;28;20118;-77
2022/06/08 12:30:00;;;;;;;15.07;6.38;;;6.70;99.40;;;;;;5037063;28;20048;-76
2022/06/08 12:32:34;;;;;;;9.65;6.00;;;6.70;99.80;;;;;;5031546;28;20025;-77
2022/06/08 12:35:08;;;;;;;10.70;6.45;;;6.60;99.90;;;;;;5033815;28;20446;-77
2022/06/08 12:37:39;;;;;;;14.93;7.30;;;6.60;99.90;;;;;;5036495;28;20388;-75
2022/06/08 12:40:25;;;;;;;15.38;9.40;;;6.50;99.90;;;;;;5031066;28;20056;-75
2022/06/08 12:43:01;;;;;;;12.23;7.45;;;6.30;99.90;;;;;;5030850;28;20029;-76
2022/06/08 12:45:36;;;;;;;14.80;9.57;;;6.20;99.90;;;;;;5043024;28;20119;-74
2022/06/08 12:48:26;;;;;;;12.40;7.13;;;6.10;99.90;;;;;;5046084;28;20056;-75
2022/06/08 12:50:55;;;;;;;13.20;7.45;;;6.00;99.90;;;;;;5035184;28;20040;-78
2022/06/08 12:53:25;;;;;;;11.90;6.75;;;5.90;99.90;;;;;;5030849;28;20022;-77
2022/06/08 12:55:53;;;;;;;12.00;7.30;;;5.80;99.90;;;;;;5033435;28;20482;-78
2022/06/08 12:58:23;;;;;;;10.18;7.13;;;5.70;99.90;;;;;;5032348;28;20087;-77
2022/06/08 13:00:53;;;;;;;9.15;6.63;;;5.70;99.90;;;;;;5039208;28;20045;-77
2022/06/08 13:03:25;;;;;;;10.75;5.40;;;5.60;99.90;;;;;;5031502;28;20029;-78
2022/06/08 13:05:54;;;;;;;12.80;6.47;;;5.60;99.90;;;;;;5034785;28;20041;-77
2022/06/08 13:08:25;;;;;;;11.25;4.72;;;5.70;99.90;;;;;;5034240;28;20026;-76
2022/06/08 13:10:55;;;;;;;6.40;3.90;;;5.80;99.90;;;;;;5030247;28;20021;-77
2022/06/08 13:13:26;;;;;;;10.80;4.07;;;5.90;99.90;;;;;;5036542;28;20053;-78
2022/06/08 13:15:53;;;;;;;9.18;3.65;;;5.90;99.90;;;;;;5031841;28;20025;-76
2022/06/08 13:18:28;;;;;;;7.97;4.78;;;5.90;99.90;;;;;;5029634;28;20452;-73
2022/06/08 13:21:02;;;;;;;12.70;5.32;;;5.90;99.90;;;;;;5030892;28;20403;-77
2022/06/08 13:23:29;;;;;;;9.85;5.55;;;5.80;99.90;;;;;;5029728;28;20082;-77
2022/06/08 13:25:57;;;;;;;8.60;5.20;;;5.70;99.90;;;;;;5027989;28;20017;-76
2022/06/08 13:28:29;;;;;;;11.93;6.80;;;5.60;99.90;;;;;;5032466;28;20112;-72
2022/06/08 13:30:58;;;;;;;8.55;5.63;;;5.40;99.90;;;;;;5034098;28;22760;-75
2022/06/08 13:36:25;;;;;;;5.70;3.72;;;5.30;99.90;;;;;;5037491;28;20055;-73